createdAt,value
2019-01-16T00:00:04.394Z,0
2019-01-16T00:01:14.303Z,0
2019-01-16T00:02:24.365Z,0
2019-01-16T00:03:34.277Z,0
2019-01-16T00:04:44.190Z,0
2019-01-16T00:05:54.094Z,0
2019-01-16T00:07:04.000Z,0
2019-01-16T00:08:14.026Z,0
2019-01-16T00:09:23.947Z,0
2019-01-16T00:10:33.866Z,0
2019-01-16T00:11:43.779Z,0
2019-01-16T00:12:53.685Z,0
2019-01-16T00:14:03.653Z,0
2019-01-16T00:15:13.563Z,0
2019-01-16T00:16:23.476Z,0
2019-01-16T00:17:33.383Z,0
2019-01-16T00:18:43.299Z,0
2019-01-16T00:19:53.379Z,0
2019-01-16T00:21:03.290Z,0
2019-01-16T00:22:13.198Z,0
2019-01-16T00:23:23.110Z,0
2019-01-16T00:24:33.029Z,0
2019-01-16T00:25:43.039Z,0
2019-01-16T00:26:52.947Z,0
2019-01-16T00:28:02.598Z,0
2019-01-16T00:29:12.514Z,0
2019-01-16T00:30:22.419Z,0
2019-01-16T00:31:32.430Z,0
2019-01-16T00:32:42.342Z,0
2019-01-16T00:33:52.246Z,0
2019-01-16T00:35:02.159Z,0
2019-01-16T00:36:12.065Z,0
2019-01-16T00:37:22.069Z,0
2019-01-16T00:38:31.978Z,0
2019-01-16T00:39:41.894Z,0
2019-01-16T00:40:51.857Z,0
2019-01-16T00:42:01.763Z,0
2019-01-16T00:43:11.468Z,0
2019-01-16T00:44:21.375Z,0
2019-01-16T00:45:31.290Z,0
2019-01-16T00:46:41.200Z,0
2019-01-16T00:47:51.114Z,0
2019-01-16T00:49:01.021Z,0
2019-01-16T00:50:10.941Z,0
2019-01-16T00:51:20.869Z,0
2019-01-16T00:52:30.831Z,0
2019-01-16T00:53:40.737Z,0
2019-01-16T00:54:50.693Z,0
2019-01-16T00:56:00.598Z,0
2019-01-16T00:57:10.504Z,0
2019-01-16T00:58:20.416Z,0
2019-01-16T00:59:30.708Z,0
2019-01-16T01:00:40.803Z,0
2019-01-16T01:01:50.712Z,0
2019-01-16T01:03:00.631Z,0
2019-01-16T01:04:10.542Z,0
2019-01-16T01:05:20.466Z,0
2019-01-16T01:06:30.426Z,0
2019-01-16T01:07:40.340Z,0
2019-01-16T01:08:50.249Z,0
2019-01-16T01:10:00.167Z,0
2019-01-16T01:11:09.835Z,0
2019-01-16T01:12:19.758Z,0
2019-01-16T01:13:29.720Z,0
2019-01-16T01:14:39.626Z,0
2019-01-16T01:15:49.536Z,0
2019-01-16T01:16:59.453Z,0
2019-01-16T01:18:09.368Z,0
2019-01-16T01:19:19.280Z,0
2019-01-16T01:20:28.937Z,0
2019-01-16T01:21:38.597Z,0
2019-01-16T01:22:48.506Z,0
2019-01-16T01:23:59.030Z,0
2019-01-16T01:25:08.939Z,0
2019-01-16T01:26:18.850Z,0
2019-01-16T01:27:28.766Z,0
2019-01-16T01:28:38.681Z,0
2019-01-16T01:29:48.686Z,0
2019-01-16T01:30:58.600Z,0
2019-01-16T01:32:08.530Z,0
2019-01-16T01:33:18.441Z,0
2019-01-16T01:34:28.737Z,0
2019-01-16T01:35:38.641Z,0
2019-01-16T01:36:48.604Z,0
2019-01-16T01:37:58.510Z,0
2019-01-16T01:39:08.417Z,0
2019-01-16T01:40:18.327Z,0
2019-01-16T01:41:28.287Z,0
2019-01-16T01:42:38.193Z,0
2019-01-16T01:43:48.103Z,0
2019-01-16T01:44:58.020Z,0
2019-01-16T01:46:07.942Z,0
2019-01-16T01:47:17.951Z,0
2019-01-16T01:48:27.859Z,0
2019-01-16T01:49:37.768Z,0
2019-01-16T01:50:47.679Z,0
2019-01-16T01:51:57.588Z,0
2019-01-16T01:53:07.299Z,0
2019-01-16T01:54:17.221Z,0
2019-01-16T01:55:27.130Z,0
2019-01-16T01:56:37.036Z,0
2019-01-16T01:57:46.943Z,0
2019-01-16T01:58:56.853Z,0
2019-01-16T02:00:06.762Z,0
2019-01-16T02:01:16.673Z,0
2019-01-16T02:02:26.586Z,0
2019-01-16T02:03:36.497Z,0
2019-01-16T02:04:46.513Z,0
2019-01-16T02:05:56.418Z,0
2019-01-16T02:07:06.328Z,0
2019-01-16T02:08:16.237Z,0
2019-01-16T02:09:26.144Z,0
2019-01-16T02:10:36.153Z,0
2019-01-16T02:11:46.116Z,0
2019-01-16T02:12:56.025Z,0
2019-01-16T02:14:05.931Z,0
2019-01-16T02:15:15.846Z,0
2019-01-16T02:16:25.806Z,0
2019-01-16T02:17:35.724Z,0
2019-01-16T02:18:52.173Z,0
2019-01-16T02:20:02.085Z,0
2019-01-16T02:21:11.997Z,0
2019-01-16T02:22:21.973Z,0
2019-01-16T02:23:31.912Z,0
2019-01-16T02:24:41.817Z,0
2019-01-16T02:25:51.730Z,0
2019-01-16T02:27:01.642Z,0
2019-01-16T02:28:11.653Z,0
2019-01-16T02:29:21.559Z,0
2019-01-16T02:30:31.476Z,0
2019-01-16T02:31:41.403Z,0
2019-01-16T02:32:51.321Z,0
2019-01-16T02:34:01.330Z,0
2019-01-16T02:35:11.255Z,0
2019-01-16T02:36:21.168Z,0
2019-01-16T02:37:31.084Z,0
2019-01-16T02:38:41.001Z,0
2019-01-16T02:39:50.971Z,0
2019-01-16T02:41:00.945Z,0
2019-01-16T02:42:10.861Z,0
2019-01-16T02:43:20.777Z,0
2019-01-16T02:44:30.686Z,0
2019-01-16T02:45:40.698Z,0
2019-01-16T02:46:50.625Z,0
2019-01-16T02:48:00.649Z,0
2019-01-16T02:49:10.586Z,0
2019-01-16T02:50:20.513Z,0
2019-01-16T02:51:30.530Z,0
2019-01-16T02:52:40.455Z,0
2019-01-16T02:53:50.115Z,0
2019-01-16T02:55:00.025Z,0
2019-01-16T02:56:09.936Z,0
2019-01-16T02:57:19.946Z,0
2019-01-16T02:58:29.893Z,0
2019-01-16T02:59:39.811Z,0
2019-01-16T03:00:49.728Z,0
2019-01-16T03:01:59.647Z,0
2019-01-16T03:03:09.707Z,0
2019-01-16T03:04:19.622Z,0
2019-01-16T03:05:29.582Z,0
2019-01-16T03:06:39.509Z,0
2019-01-16T03:07:49.431Z,0
2019-01-16T03:08:59.086Z,0
2019-01-16T03:10:09.004Z,0
2019-01-16T03:11:18.914Z,0
2019-01-16T03:12:28.831Z,0
2019-01-16T03:13:38.748Z,0
2019-01-16T03:14:48.758Z,0
2019-01-16T03:15:58.667Z,0
2019-01-16T03:17:08.333Z,0
2019-01-16T03:18:17.997Z,0
2019-01-16T03:19:27.918Z,0
2019-01-16T03:20:37.948Z,0
2019-01-16T03:21:47.856Z,0
2019-01-16T03:22:57.791Z,0
2019-01-16T03:24:07.705Z,0
2019-01-16T03:25:17.618Z,0
2019-01-16T03:26:27.646Z,0
2019-01-16T03:27:37.558Z,0
2019-01-16T03:28:47.478Z,0
2019-01-16T03:29:57.409Z,0
2019-01-16T03:31:07.382Z,0
2019-01-16T03:32:17.633Z,0
2019-01-16T03:33:27.574Z,0
2019-01-16T03:34:37.489Z,0
2019-01-16T03:35:47.404Z,0
2019-01-16T03:36:57.316Z,0
2019-01-16T03:38:07.359Z,0
2019-01-16T03:39:17.269Z,0
2019-01-16T03:40:27.233Z,0
2019-01-16T03:41:37.157Z,0
2019-01-16T03:42:47.071Z,0
2019-01-16T03:43:57.042Z,0
2019-01-16T03:45:06.956Z,0
2019-01-16T03:46:16.902Z,0
2019-01-16T03:47:26.817Z,0
2019-01-16T03:48:36.722Z,0
2019-01-16T03:49:46.734Z,0
2019-01-16T03:50:56.648Z,0
2019-01-16T03:52:06.563Z,0
2019-01-16T03:53:16.466Z,0
2019-01-16T03:54:26.399Z,0
2019-01-16T03:55:36.558Z,0
2019-01-16T03:56:46.480Z,0
2019-01-16T03:57:56.392Z,0
2019-01-16T03:59:06.300Z,0
2019-01-16T04:00:16.210Z,0
2019-01-16T04:01:26.126Z,0
2019-01-16T04:02:36.038Z,0
2019-01-16T04:03:45.952Z,0
2019-01-16T04:04:55.865Z,0
2019-01-16T04:06:05.778Z,0
2019-01-16T04:07:15.789Z,0
2019-01-16T04:08:25.697Z,0
2019-01-16T04:09:35.691Z,0
2019-01-16T04:10:45.603Z,0
2019-01-16T04:11:55.516Z,0
2019-01-16T04:13:05.532Z,0
2019-01-16T04:14:15.460Z,0
2019-01-16T04:15:25.393Z,0
2019-01-16T04:16:35.310Z,0
2019-01-16T04:17:45.228Z,0
2019-01-16T04:18:55.241Z,0
2019-01-16T04:20:05.155Z,0
2019-01-16T04:21:15.082Z,0
2019-01-16T04:22:25.015Z,0
2019-01-16T04:23:34.928Z,0
2019-01-16T04:24:44.936Z,0
2019-01-16T04:25:54.854Z,0
2019-01-16T04:27:05.673Z,0
2019-01-16T04:28:15.581Z,0
2019-01-16T04:29:25.511Z,0
2019-01-16T04:30:35.521Z,0
2019-01-16T04:31:45.431Z,0
2019-01-16T04:32:55.344Z,0
2019-01-16T04:34:05.259Z,0
2019-01-16T04:35:15.171Z,0
2019-01-16T04:36:25.183Z,0
2019-01-16T04:37:35.094Z,0
2019-01-16T04:38:45.006Z,0
2019-01-16T04:39:54.914Z,0
2019-01-16T04:41:04.834Z,0
2019-01-16T04:42:14.793Z,0
2019-01-16T04:43:24.704Z,0
2019-01-16T04:44:34.616Z,0
2019-01-16T04:45:44.552Z,0
2019-01-16T04:46:54.469Z,0
2019-01-16T04:48:04.475Z,0
2019-01-16T04:49:14.398Z,0
2019-01-16T04:50:24.308Z,0
2019-01-16T04:51:34.226Z,0
2019-01-16T04:52:44.148Z,0
2019-01-16T04:53:54.136Z,0
2019-01-16T04:55:04.094Z,0
2019-01-16T04:56:14.015Z,0
2019-01-16T04:57:23.925Z,0
2019-01-16T04:58:33.838Z,0
2019-01-16T04:59:43.854Z,0
2019-01-16T05:00:53.764Z,0
2019-01-16T05:02:03.444Z,0
2019-01-16T05:03:13.363Z,0
2019-01-16T05:04:23.271Z,0
2019-01-16T05:05:32.990Z,0
2019-01-16T05:06:42.896Z,0
2019-01-16T05:07:52.808Z,0
2019-01-16T05:09:02.721Z,0
2019-01-16T05:10:12.633Z,0
2019-01-16T05:11:22.392Z,0
2019-01-16T05:12:34.286Z,0
2019-01-16T05:13:44.199Z,0
2019-01-16T05:14:53.866Z,0
2019-01-16T05:16:03.783Z,0
2019-01-16T05:17:13.813Z,0
2019-01-16T05:18:23.737Z,0
2019-01-16T05:19:41.173Z,0
2019-01-16T05:20:51.085Z,0
2019-01-16T05:22:00.996Z,0
2019-01-16T05:23:11.008Z,0
2019-01-16T05:24:20.923Z,0
2019-01-16T05:25:30.843Z,0
2019-01-16T05:26:40.755Z,0
2019-01-16T05:27:50.696Z,0
2019-01-16T05:29:00.713Z,0
2019-01-16T05:30:10.627Z,0
2019-01-16T05:31:20.544Z,0
2019-01-16T05:32:30.465Z,0
2019-01-16T05:33:40.380Z,0
2019-01-16T05:34:50.360Z,0
2019-01-16T05:36:00.273Z,0
2019-01-16T05:37:10.196Z,0
2019-01-16T05:38:19.857Z,0
2019-01-16T05:39:29.764Z,0
2019-01-16T05:40:39.785Z,0
2019-01-16T05:41:49.720Z,0
2019-01-16T05:42:59.637Z,0
2019-01-16T05:44:09.559Z,0
2019-01-16T05:45:19.851Z,0
2019-01-16T05:46:29.867Z,0
2019-01-16T05:47:39.785Z,0
2019-01-16T05:48:49.696Z,0
2019-01-16T05:49:59.608Z,0
2019-01-16T05:51:09.522Z,0
2019-01-16T05:52:19.535Z,0
2019-01-16T05:53:29.509Z,0
2019-01-16T05:54:39.419Z,0
2019-01-16T05:55:49.355Z,0
2019-01-16T05:56:59.274Z,0
2019-01-16T05:58:09.251Z,0
2019-01-16T05:59:19.165Z,0
2019-01-16T06:00:29.077Z,0
2019-01-16T06:01:38.989Z,0
2019-01-16T06:02:48.907Z,0
2019-01-16T06:03:58.912Z,0
2019-01-16T06:05:08.817Z,0
2019-01-16T06:06:18.728Z,0
2019-01-16T06:07:28.646Z,0
2019-01-16T06:08:38.568Z,0
2019-01-16T06:09:48.536Z,0
2019-01-16T06:10:58.456Z,0
2019-01-16T06:12:08.374Z,0
2019-01-16T06:13:18.278Z,0
2019-01-16T06:14:28.401Z,0
2019-01-16T06:15:38.363Z,0
2019-01-16T06:16:48.279Z,0
2019-01-16T06:17:58.187Z,0
2019-01-16T06:19:08.090Z,0
2019-01-16T06:20:18.002Z,0
2019-01-16T06:21:28.009Z,0
2019-01-16T06:22:37.928Z,0
2019-01-16T06:23:47.835Z,0
2019-01-16T06:24:57.751Z,0
2019-01-16T06:26:07.792Z,0
2019-01-16T06:27:17.850Z,0
2019-01-16T06:28:27.513Z,0
2019-01-16T06:29:37.437Z,0
2019-01-16T06:30:47.346Z,0
2019-01-16T06:31:57.253Z,0
2019-01-16T06:33:07.210Z,0
2019-01-16T06:34:17.124Z,0
2019-01-16T06:35:27.046Z,0
2019-01-16T06:36:36.964Z,0
2019-01-16T06:37:46.872Z,0
2019-01-16T06:38:56.582Z,0
2019-01-16T06:40:06.496Z,0
2019-01-16T06:41:16.416Z,0
2019-01-16T06:42:26.324Z,0
2019-01-16T06:43:36.296Z,0
2019-01-16T06:44:46.310Z,0
2019-01-16T06:45:56.231Z,0
2019-01-16T06:47:06.137Z,0
2019-01-16T06:48:16.049Z,0
2019-01-16T06:49:25.956Z,0
2019-01-16T06:50:35.965Z,0
2019-01-16T06:51:45.875Z,0
2019-01-16T06:52:55.786Z,0
2019-01-16T06:54:05.702Z,0
2019-01-16T06:55:15.621Z,0
2019-01-16T06:56:25.578Z,0
2019-01-16T06:57:36.311Z,0
2019-01-16T06:58:46.223Z,0
2019-01-16T06:59:56.133Z,0
2019-01-16T07:01:06.043Z,0
2019-01-16T07:02:16.052Z,0
2019-01-16T07:03:25.961Z,0
2019-01-16T07:04:35.868Z,0
2019-01-16T07:05:45.776Z,0
2019-01-16T07:06:55.692Z,0
2019-01-16T07:08:05.700Z,0
2019-01-16T07:09:15.611Z,0
2019-01-16T07:10:25.520Z,0
2019-01-16T07:11:35.437Z,0
2019-01-16T07:12:45.349Z,0
2019-01-16T07:13:55.260Z,0
2019-01-16T07:15:05.236Z,0
2019-01-16T07:16:15.141Z,0
2019-01-16T07:17:25.054Z,0
2019-01-16T07:18:34.962Z,0
2019-01-16T07:19:45.022Z,4
2019-01-16T07:20:54.934Z,4
2019-01-16T07:22:04.842Z,4
2019-01-16T07:23:14.751Z,4
2019-01-16T07:24:24.410Z,4
2019-01-16T07:25:34.423Z,4
2019-01-16T07:26:44.335Z,0
2019-01-16T07:27:54.246Z,4
2019-01-16T07:29:04.155Z,4
2019-01-16T07:30:14.104Z,4
2019-01-16T07:31:24.014Z,8
2019-01-16T07:32:33.929Z,4
2019-01-16T07:33:43.839Z,4
2019-01-16T07:34:53.747Z,8
2019-01-16T07:36:03.670Z,4
2019-01-16T07:37:13.642Z,8
2019-01-16T07:38:23.551Z,12
2019-01-16T07:39:33.209Z,8
2019-01-16T07:40:43.120Z,12
2019-01-16T07:41:53.032Z,12
2019-01-16T07:43:03.060Z,12
2019-01-16T07:44:12.968Z,16
2019-01-16T07:45:22.933Z,20
2019-01-16T07:46:32.842Z,20
2019-01-16T07:47:42.753Z,20
2019-01-16T07:48:52.768Z,24
2019-01-16T07:50:02.677Z,24
2019-01-16T07:51:12.585Z,28
2019-01-16T07:52:22.498Z,28
2019-01-16T07:53:32.419Z,32
2019-01-16T07:54:42.391Z,36
2019-01-16T07:55:52.400Z,40
2019-01-16T07:57:02.349Z,44
2019-01-16T07:58:12.265Z,48
2019-01-16T07:59:28.893Z,52
2019-01-16T08:00:38.863Z,56
2019-01-16T08:01:48.780Z,56
2019-01-16T08:02:59.698Z,64
2019-01-16T08:04:09.682Z,68
2019-01-16T08:05:19.593Z,68
2019-01-16T08:06:29.551Z,76
2019-01-16T08:07:39.463Z,80
2019-01-16T08:08:49.116Z,84
2019-01-16T08:09:59.024Z,88
2019-01-16T08:11:08.935Z,92
2019-01-16T08:12:18.946Z,100
2019-01-16T08:13:28.863Z,104
2019-01-16T08:14:38.788Z,112
2019-01-16T08:15:48.695Z,112
2019-01-16T08:16:58.601Z,120
2019-01-16T08:18:08.668Z,128
2019-01-16T08:19:18.580Z,132
2019-01-16T08:20:32.365Z,140
2019-01-16T08:21:42.276Z,148
2019-01-16T08:22:52.186Z,152
2019-01-16T08:24:02.246Z,156
2019-01-16T08:25:12.157Z,156
2019-01-16T08:26:22.065Z,164
2019-01-16T08:27:31.974Z,176
2019-01-16T08:28:41.882Z,184
2019-01-16T08:29:51.885Z,196
2019-01-16T08:31:01.799Z,208
2019-01-16T08:32:11.731Z,220
2019-01-16T08:33:21.650Z,232
2019-01-16T08:34:31.564Z,244
2019-01-16T08:35:41.520Z,244
2019-01-16T08:36:51.437Z,248
2019-01-16T08:38:01.353Z,252
2019-01-16T08:39:11.261Z,264
2019-01-16T08:40:21.172Z,280
2019-01-16T08:41:31.298Z,296
2019-01-16T08:42:41.214Z,304
2019-01-16T08:43:51.125Z,316
2019-01-16T08:45:01.038Z,324
2019-01-16T08:46:10.960Z,332
2019-01-16T08:47:20.975Z,340
2019-01-16T08:48:30.884Z,348
2019-01-16T08:49:40.821Z,360
2019-01-16T08:50:50.737Z,372
2019-01-16T08:52:00.660Z,392
2019-01-16T08:53:10.622Z,404
2019-01-16T08:54:20.561Z,424
2019-01-16T08:55:30.484Z,440
2019-01-16T08:56:40.403Z,456
2019-01-16T08:57:50.318Z,468
2019-01-16T08:59:00.232Z,488
2019-01-16T09:00:10.146Z,504
2019-01-16T09:01:20.064Z,528
2019-01-16T09:02:29.975Z,552
2019-01-16T09:03:39.884Z,572
2019-01-16T09:04:49.889Z,592
2019-01-16T09:05:59.799Z,620
2019-01-16T09:07:09.707Z,640
2019-01-16T09:08:19.624Z,656
2019-01-16T09:09:29.534Z,664
2019-01-16T09:10:39.491Z,664
2019-01-16T09:11:50.347Z,672
2019-01-16T09:13:00.275Z,684
2019-01-16T09:14:10.189Z,700
2019-01-16T09:15:20.100Z,728
2019-01-16T09:16:30.105Z,744
2019-01-16T09:17:40.009Z,744
2019-01-16T09:18:50.021Z,740
2019-01-16T09:19:59.932Z,736
2019-01-16T09:21:09.846Z,748
2019-01-16T09:22:19.767Z,756
2019-01-16T09:23:29.684Z,772
2019-01-16T09:24:39.591Z,784
2019-01-16T09:25:49.514Z,804
2019-01-16T09:26:59.422Z,828
2019-01-16T09:28:09.434Z,840
2019-01-16T09:29:19.344Z,848
2019-01-16T09:30:29.726Z,864
2019-01-16T09:31:39.382Z,876
2019-01-16T09:32:49.293Z,912
2019-01-16T09:33:59.249Z,952
2019-01-16T09:35:09.159Z,980
2019-01-16T09:36:19.072Z,984
2019-01-16T09:37:28.984Z,980
2019-01-16T09:38:38.964Z,1008
2019-01-16T09:39:48.759Z,1040
2019-01-16T09:40:58.752Z,1092
2019-01-16T09:42:09.697Z,1120
2019-01-16T09:43:20.020Z,1124
2019-01-16T09:44:30.184Z,1136
2019-01-16T09:45:40.283Z,1152
2019-01-16T09:46:50.341Z,1156
2019-01-16T09:48:00.011Z,1148
2019-01-16T09:49:10.015Z,1160
2019-01-16T09:50:19.750Z,1180
2019-01-16T09:51:30.041Z,1236
2019-01-16T09:52:40.094Z,1312
2019-01-16T09:53:50.886Z,1368
2019-01-16T09:55:00.982Z,1420
2019-01-16T09:56:10.960Z,1480
2019-01-16T09:57:20.728Z,1552
2019-01-16T09:58:30.542Z,1640
2019-01-16T09:59:40.681Z,1764
2019-01-16T10:00:50.747Z,1884
2019-01-16T10:02:00.744Z,1972
2019-01-16T10:03:10.897Z,1956
2019-01-16T10:04:20.827Z,1892
2019-01-16T10:05:30.761Z,1836
2019-01-16T10:06:40.672Z,1804
2019-01-16T10:07:50.336Z,1788
2019-01-16T10:09:00.393Z,1752
2019-01-16T10:10:10.304Z,1696
2019-01-16T10:11:20.267Z,1696
2019-01-16T10:12:30.181Z,1740
2019-01-16T10:13:40.092Z,1712
2019-01-16T10:14:50.087Z,1740
2019-01-16T10:16:00.062Z,1748
2019-01-16T10:17:09.980Z,1744
2019-01-16T10:18:19.891Z,1760
2019-01-16T10:19:29.809Z,1740
2019-01-16T10:20:45.948Z,1716
2019-01-16T10:22:03.144Z,1712
2019-01-16T10:23:13.058Z,1748
2019-01-16T10:24:23.019Z,1724
2019-01-16T10:25:33.077Z,1708
2019-01-16T10:26:43.013Z,1704
2019-01-16T10:27:52.934Z,1784
2019-01-16T10:29:02.848Z,1848
2019-01-16T10:30:12.809Z,1820
2019-01-16T10:31:22.821Z,1748
2019-01-16T10:32:32.749Z,1700
2019-01-16T10:33:42.661Z,1636
2019-01-16T10:34:52.575Z,1544
2019-01-16T10:36:02.491Z,1504
2019-01-16T10:37:12.412Z,1496
2019-01-16T10:38:22.319Z,1492
2019-01-16T10:39:32.225Z,1524
2019-01-16T10:40:42.159Z,1580
2019-01-16T10:41:52.073Z,1652
2019-01-16T10:43:02.130Z,1720
2019-01-16T10:44:12.039Z,1780
2019-01-16T10:45:23.350Z,1840
2019-01-16T10:46:33.261Z,1920
2019-01-16T10:47:43.176Z,1960
2019-01-16T10:48:56.896Z,2004
2019-01-16T10:50:06.813Z,1996
2019-01-16T10:51:16.469Z,2024
2019-01-16T10:52:26.382Z,2040
2019-01-16T10:53:36.294Z,2120
2019-01-16T10:54:46.208Z,2212
2019-01-16T10:55:56.124Z,2220
2019-01-16T10:57:06.031Z,2224
2019-01-16T10:58:15.942Z,2228
2019-01-16T10:59:25.870Z,2228
2019-01-16T11:00:35.894Z,2228
2019-01-16T11:01:45.809Z,2252
2019-01-16T11:02:55.718Z,2256
2019-01-16T11:04:05.628Z,2316
2019-01-16T11:05:15.862Z,2280
2019-01-16T11:06:25.836Z,2252
2019-01-16T11:07:35.745Z,2180
2019-01-16T11:08:45.653Z,2180
2019-01-16T11:09:55.560Z,2156
2019-01-16T11:11:06.675Z,2120
2019-01-16T11:12:23.738Z,2116
2019-01-16T11:13:34.000Z,2172
2019-01-16T11:14:44.054Z,2252
2019-01-16T11:15:53.968Z,2304
2019-01-16T11:17:04.155Z,2336
2019-01-16T11:18:14.062Z,2364
2019-01-16T11:19:23.969Z,2372
2019-01-16T11:20:33.884Z,2448
2019-01-16T11:21:43.793Z,2564
2019-01-16T11:22:53.699Z,2724
2019-01-16T11:24:03.714Z,2944
2019-01-16T11:25:13.627Z,3232
2019-01-16T11:26:23.539Z,3404
2019-01-16T11:27:33.502Z,3440
2019-01-16T11:28:43.411Z,3220
2019-01-16T11:29:53.429Z,3072
2019-01-16T11:31:03.347Z,3036
2019-01-16T11:32:13.278Z,3096
2019-01-16T11:33:22.935Z,3088
2019-01-16T11:34:32.842Z,3104
2019-01-16T11:35:42.548Z,3092
2019-01-16T11:36:52.209Z,3032
2019-01-16T11:38:02.119Z,3056
2019-01-16T11:39:12.030Z,3128
2019-01-16T11:40:21.952Z,3076
2019-01-16T11:41:31.862Z,3072
2019-01-16T11:42:41.774Z,3176
2019-01-16T11:43:51.685Z,3356
2019-01-16T11:45:01.593Z,3352
2019-01-16T11:46:11.574Z,3368
2019-01-16T11:47:21.581Z,3320
2019-01-16T11:48:31.495Z,3236
2019-01-16T11:49:41.560Z,3012
2019-01-16T11:50:51.472Z,2876
2019-01-16T11:52:01.408Z,2884
2019-01-16T11:53:12.236Z,2876
2019-01-16T11:54:22.267Z,3016
2019-01-16T11:55:32.177Z,3032
2019-01-16T11:56:42.091Z,3056
2019-01-16T11:57:52.012Z,3032
2019-01-16T11:59:01.969Z,3040
2019-01-16T12:00:11.886Z,3024
2019-01-16T12:01:21.793Z,3084
2019-01-16T12:02:38.214Z,3056
2019-01-16T12:03:48.393Z,2932
2019-01-16T12:04:58.425Z,2724
2019-01-16T12:06:08.344Z,2624
2019-01-16T12:07:18.317Z,2708
2019-01-16T12:08:28.237Z,2768
2019-01-16T12:09:38.155Z,2704
2019-01-16T12:10:48.227Z,2536
2019-01-16T12:11:58.140Z,2372
2019-01-16T12:13:08.058Z,2340
2019-01-16T12:14:17.967Z,2416
2019-01-16T12:15:27.879Z,2756
2019-01-16T12:16:37.641Z,2900
2019-01-16T12:17:47.560Z,2828
2019-01-16T12:18:57.467Z,2848
2019-01-16T12:20:07.382Z,3172
2019-01-16T12:21:17.297Z,3260
2019-01-16T12:22:34.087Z,3296
2019-01-16T12:23:44.002Z,3940
2019-01-16T12:24:53.922Z,4736
2019-01-16T12:26:10.589Z,4324
2019-01-16T12:27:20.500Z,3580
2019-01-16T12:28:30.460Z,3332
2019-01-16T12:29:40.369Z,3484
2019-01-16T12:30:50.291Z,3496
2019-01-16T12:32:00.212Z,3096
2019-01-16T12:33:10.127Z,2780
2019-01-16T12:34:20.145Z,2728
2019-01-16T12:35:30.055Z,2656
2019-01-16T12:36:39.973Z,3052
2019-01-16T12:37:49.884Z,3128
2019-01-16T12:38:59.801Z,3040
2019-01-16T12:40:11.277Z,3336
2019-01-16T12:41:21.198Z,3208
2019-01-16T12:42:31.119Z,2716
2019-01-16T12:43:41.027Z,2124
2019-01-16T12:44:50.938Z,1864
2019-01-16T12:46:00.952Z,1680
2019-01-16T12:47:10.862Z,1860
2019-01-16T12:48:20.775Z,2204
2019-01-16T12:49:30.695Z,2212
2019-01-16T12:50:40.670Z,2108
2019-01-16T12:51:50.634Z,2152
2019-01-16T12:53:01.556Z,2204
2019-01-16T12:54:11.469Z,2364
2019-01-16T12:55:21.377Z,2704
2019-01-16T12:56:31.289Z,2728
2019-01-16T12:57:41.248Z,2696
2019-01-16T12:58:51.161Z,2232
2019-01-16T13:00:01.132Z,2016
2019-01-16T13:01:10.821Z,1964
2019-01-16T13:02:20.734Z,1952
2019-01-16T13:03:30.795Z,1900
2019-01-16T13:04:40.743Z,1636
2019-01-16T13:05:50.710Z,1468
2019-01-16T13:07:00.637Z,1548
2019-01-16T13:08:10.551Z,1496
2019-01-16T13:09:20.614Z,1500
2019-01-16T13:10:30.569Z,1600
2019-01-16T13:11:40.235Z,1976
2019-01-16T13:12:50.150Z,2132
2019-01-16T13:14:00.061Z,2412
2019-01-16T13:15:09.988Z,2624
2019-01-16T13:16:19.901Z,2604
2019-01-16T13:17:29.813Z,2504
2019-01-16T13:18:39.720Z,2484
2019-01-16T13:19:49.627Z,2596
2019-01-16T13:20:59.551Z,2844
2019-01-16T13:22:09.467Z,3012
2019-01-16T13:23:19.384Z,2652
2019-01-16T13:24:29.298Z,2256
2019-01-16T13:25:39.214Z,2112
2019-01-16T13:26:49.333Z,2284
2019-01-16T13:27:59.692Z,2196
2019-01-16T13:29:09.618Z,2168
2019-01-16T13:30:19.529Z,2284
2019-01-16T13:31:29.448Z,2420
2019-01-16T13:32:39.463Z,2328
2019-01-16T13:33:49.371Z,2312
2019-01-16T13:34:59.285Z,2380
2019-01-16T13:36:08.959Z,2216
2019-01-16T13:37:18.873Z,1696
2019-01-16T13:38:28.882Z,1768
2019-01-16T13:39:38.790Z,1556
2019-01-16T13:40:48.700Z,1576
2019-01-16T13:41:58.615Z,1604
2019-01-16T13:43:08.521Z,1408
2019-01-16T13:44:18.581Z,1232
2019-01-16T13:45:28.495Z,1200
2019-01-16T13:46:38.405Z,1152
2019-01-16T13:47:48.319Z,1136
2019-01-16T13:49:00.098Z,1068
2019-01-16T13:50:09.819Z,1024
2019-01-16T13:51:19.729Z,988
2019-01-16T13:52:29.639Z,940
2019-01-16T13:53:39.553Z,856
2019-01-16T13:54:49.470Z,800
2019-01-16T13:55:59.482Z,760
2019-01-16T13:57:09.395Z,724
2019-01-16T13:58:19.354Z,704
2019-01-16T13:59:29.331Z,680
2019-01-16T14:00:39.243Z,640
2019-01-16T14:01:49.158Z,624
2019-01-16T14:02:59.069Z,616
2019-01-16T14:04:08.984Z,604
2019-01-16T14:05:18.893Z,568
2019-01-16T14:06:28.807Z,540
2019-01-16T14:07:38.818Z,528
2019-01-16T14:08:48.732Z,512
2019-01-16T14:09:58.644Z,516
2019-01-16T14:11:08.555Z,516
2019-01-16T14:12:18.466Z,508
2019-01-16T14:13:28.893Z,488
2019-01-16T14:14:38.826Z,468
2019-01-16T14:15:48.740Z,456
2019-01-16T14:16:58.648Z,436
2019-01-16T14:18:08.560Z,424
2019-01-16T14:19:18.520Z,400
2019-01-16T14:20:28.429Z,384
2019-01-16T14:21:38.336Z,376
2019-01-16T14:22:48.244Z,360
2019-01-16T14:23:58.150Z,340
2019-01-16T14:25:08.112Z,324
2019-01-16T14:26:18.024Z,312
2019-01-16T14:27:27.934Z,312
2019-01-16T14:28:37.843Z,304
2019-01-16T14:29:47.759Z,292
2019-01-16T14:30:57.721Z,272
2019-01-16T14:32:07.633Z,256
2019-01-16T14:33:17.544Z,244
2019-01-16T14:34:27.206Z,232
2019-01-16T14:35:37.113Z,224
2019-01-16T14:36:47.072Z,212
2019-01-16T14:37:56.979Z,208
2019-01-16T14:39:06.886Z,192
2019-01-16T14:40:16.817Z,180
2019-01-16T14:41:26.731Z,168
2019-01-16T14:42:36.698Z,156
2019-01-16T14:43:46.613Z,144
2019-01-16T14:44:56.529Z,136
2019-01-16T14:46:06.439Z,124
2019-01-16T14:47:16.348Z,116
2019-01-16T14:48:26.308Z,112
2019-01-16T14:49:36.221Z,104
2019-01-16T14:50:46.143Z,100
2019-01-16T14:52:02.076Z,88
2019-01-16T14:53:12.002Z,80
2019-01-16T14:54:22.011Z,76
2019-01-16T14:55:31.923Z,68
2019-01-16T14:56:41.860Z,60
2019-01-16T14:57:51.769Z,56
2019-01-16T14:59:01.677Z,52
2019-01-16T15:00:11.690Z,44
2019-01-16T15:01:21.376Z,44
2019-01-16T15:02:31.337Z,36
2019-01-16T15:03:41.245Z,32
2019-01-16T15:04:51.152Z,28
2019-01-16T15:06:01.162Z,24
2019-01-16T15:07:11.081Z,24
2019-01-16T15:08:20.992Z,20
2019-01-16T15:09:30.899Z,20
2019-01-16T15:10:40.809Z,20
2019-01-16T15:11:50.819Z,16
2019-01-16T15:13:00.724Z,16
2019-01-16T15:14:10.630Z,12
2019-01-16T15:15:20.540Z,12
2019-01-16T15:16:30.449Z,8
2019-01-16T15:17:40.459Z,8
2019-01-16T15:18:50.374Z,8
2019-01-16T15:20:00.282Z,8
2019-01-16T15:21:10.197Z,4
2019-01-16T15:22:20.107Z,8
2019-01-16T15:23:30.063Z,4
2019-01-16T15:24:39.966Z,4
2019-01-16T15:25:49.877Z,4
2019-01-16T15:26:59.784Z,4
2019-01-16T15:28:09.693Z,4
2019-01-16T15:29:19.663Z,4
2019-01-16T15:30:29.570Z,0
2019-01-16T15:31:39.537Z,4
2019-01-16T15:32:49.444Z,4
2019-01-16T15:33:59.097Z,4
2019-01-16T15:35:09.111Z,0
2019-01-16T15:36:19.354Z,0
2019-01-16T15:37:29.022Z,0
2019-01-16T15:38:38.932Z,0
2019-01-16T15:39:48.839Z,0
2019-01-16T15:40:58.843Z,0
2019-01-16T15:42:08.748Z,0
2019-01-16T15:43:18.654Z,0
2019-01-16T15:44:28.559Z,0
2019-01-16T15:45:38.463Z,0
2019-01-16T15:46:48.473Z,0
2019-01-16T15:47:58.378Z,0
2019-01-16T15:49:08.288Z,0
2019-01-16T15:50:18.198Z,0
2019-01-16T15:51:28.102Z,0
2019-01-16T15:52:38.063Z,0
2019-01-16T15:53:47.967Z,0
2019-01-16T15:54:57.876Z,0
2019-01-16T15:56:07.792Z,0
2019-01-16T15:57:17.704Z,0
2019-01-16T15:58:27.661Z,0
2019-01-16T15:59:37.569Z,0
2019-01-16T16:00:47.473Z,0
2019-01-16T16:01:57.385Z,0
2019-01-16T16:03:07.324Z,0
2019-01-16T16:04:17.289Z,0
2019-01-16T16:05:27.210Z,0
2019-01-16T16:06:37.115Z,0
2019-01-16T16:07:47.023Z,0
2019-01-16T16:08:56.935Z,0
2019-01-16T16:10:06.895Z,0
2019-01-16T16:11:16.800Z,0
2019-01-16T16:12:26.706Z,0
2019-01-16T16:13:36.611Z,0
2019-01-16T16:14:46.280Z,0
2019-01-16T16:15:56.288Z,0
2019-01-16T16:17:05.944Z,0
2019-01-16T16:18:15.850Z,0
2019-01-16T16:19:25.756Z,0
2019-01-16T16:20:35.667Z,0
2019-01-16T16:21:45.677Z,0
2019-01-16T16:22:55.579Z,0
2019-01-16T16:24:05.483Z,0
2019-01-16T16:25:15.398Z,0
2019-01-16T16:26:25.305Z,0
2019-01-16T16:27:35.365Z,0
2019-01-16T16:28:45.277Z,0
2019-01-16T16:29:55.184Z,0
2019-01-16T16:31:05.101Z,0
2019-01-16T16:32:15.016Z,0
2019-01-16T16:33:25.080Z,0
2019-01-16T16:34:34.993Z,0